Mertens, TX (76666)

8:55 AM CST on January 28, 2015 (GMT -0600)
Schulz Farms | Change Station
CLOSE
Current Station
Personal Weather Station
Location: Malone, TX
Elevation: 535 ft
Nearby Weather Stations

Elev 535 ft 31.96 °N, 96.90 °W | Updated 6 minutes ago

Clear
Clear
55.8 °F
Feels Like 55.8 °F
N
4.7
Wind Variable Wind from SSW

Today
High -- | Low -- °F
--% Chance of Precip.
Yesterday
High -- | Low -- °F
Precip. -- in
7:23 AM 5:57 PM
Waxing Gibbous, 65% visible
Pressure 30.14 in
Visibility 10.0 miles
Clouds Clear
Dew Point 47 °F
Humidity 72%
Rainfall 0.00 in
Snow Depth Not available.
UV 1 out of 12
Pollen 7.50 out of 12
Air Quality Not available.
Flu Activity Not available.
METAR KINJ 281435Z AUTO 16004KT 10SM CLR 12/07 A3014 RMK AO2 T01150072

More Conditions Fewer Conditions

Pressure 30.14 in
Visibility 10.0 miles
Clouds Clear
Dew Point 47 °F
Humidity 72%
Rainfall 0.00 in
Snow Depth Not available.
UV 1 out of 12
Pollen 7.50 out of 12
Air Quality Not available.
Flu Activity Not available.
METAR KINJ 281435Z AUTO 16004KT 10SM CLR 12/07 A3014 RMK AO2 T01150072

More Conditions Fewer Conditions

10-Day Weather Forecast

Almanac

Astronomy

Jan. 28, 2015 Rise Set
Actual Time
Civil Twilight
Nautical Twilight
Astronomical Twilight
Moon
Length of Visible Light
Length of Day
Tomorrow will be .
, % of the Moon is Illuminated

Today's Extremes

State Highs State Lows

Community

WunderPhotos

Upload Photos

1,791,160 photos uploaded!

WunderBlogs® & News

Nearby

Air Quality

  Air Quality AQ Index Pollutant
Not available.

Snow Depth

Station Depth Elevation

Earthquake Activity

City Distance Mag. Time & Date
Minimum magnitude displayed is 2.5.

Coastal Water Temperatures

Place Temperature

Nearby Weather Stations